createdAt,value
2022-11-05T00:00:17.298Z,100833.16
2022-11-05T00:03:02.502Z,100830.25
2022-11-05T00:05:47.743Z,100834.78
2022-11-05T00:08:32.975Z,100829.44
2022-11-05T00:10:59.655Z,100828.19
2022-11-05T00:13:44.744Z,100835.59
2022-11-05T00:16:40.638Z,100828.88
2022-11-05T00:19:07.373Z,100830.06
2022-11-05T00:21:54.309Z,100834.97
2022-11-05T00:24:39.592Z,100848.16
2022-11-05T00:27:06.797Z,100851.56
2022-11-05T00:29:33.609Z,100846.75
2022-11-05T00:32:00.285Z,100853.81
2022-11-05T00:34:26.893Z,100853.84
2022-11-05T00:36:53.677Z,100855.50
2022-11-05T00:39:20.231Z,100860.44
2022-11-05T00:42:06.784Z,100876.66
2022-11-05T00:44:52.203Z,100876.69
2022-11-05T00:47:37.506Z,100882.09
2022-11-05T00:50:04.391Z,100874.16
2022-11-05T00:52:49.440Z,100869.44
2022-11-05T00:55:16.176Z,100871.88
2022-11-05T00:57:42.785Z,100874.28
2022-11-05T01:00:11.121Z,100882.25
2022-11-05T01:02:37.883Z,100878.22
2022-11-05T01:05:04.884Z,100880.25
2022-11-05T01:07:31.568Z,100876.50
2022-11-05T01:09:58.239Z,100881.16
2022-11-05T01:12:24.838Z,100886.22
2022-11-05T01:14:51.432Z,100882.13
2022-11-05T01:17:18.050Z,100887.50
2022-11-05T01:19:44.652Z,100889.22
2022-11-05T01:22:11.277Z,100897.75
2022-11-05T01:24:37.934Z,100902.19
2022-11-05T01:27:04.531Z,100904.84
2022-11-05T01:29:31.105Z,100898.84
2022-11-05T01:31:57.683Z,100904.63
2022-11-05T01:34:24.244Z,100903.91
2022-11-05T01:36:50.828Z,100908.13
2022-11-05T01:39:17.373Z,100917.34
2022-11-05T01:41:43.897Z,100923.94
2022-11-05T01:44:48.005Z,100926.78
2022-11-05T01:47:35.849Z,100930.06
2022-11-05T01:50:07.205Z,100923.06
2022-11-05T01:52:34.969Z,100935.06
2022-11-05T01:55:02.897Z,100925.22
2022-11-05T01:57:29.946Z,100936.97
2022-11-05T01:59:58.777Z,100929.81
2022-11-05T02:02:26.049Z,100935.97
2022-11-05T02:04:55.715Z,100935.38
2022-11-05T02:07:23.696Z,100929.97
2022-11-05T02:09:59.352Z,100938.59
2022-11-05T02:12:26.871Z,100942.00
2022-11-05T02:14:53.516Z,100942.50
2022-11-05T02:17:23.153Z,100943.31
2022-11-05T02:20:11.767Z,100939.88
2022-11-05T02:23:06.296Z,100932.34
2022-11-05T02:25:57.798Z,100940.88
2022-11-05T02:29:01.626Z,100940.06
2022-11-05T02:31:40.393Z,100951.53
2022-11-05T02:34:27.489Z,100950.13
2022-11-05T02:37:10.197Z,100948.97
2022-11-05T02:40:05.208Z,100959.97
2022-11-05T02:43:05.544Z,100954.00
2022-11-05T02:45:53.534Z,100952.44
2022-11-05T02:48:30.436Z,100950.16
2022-11-05T02:51:26.308Z,100961.06
2022-11-05T02:54:05.658Z,100944.69
2022-11-05T02:56:34.996Z,100947.91
2022-11-05T02:59:01.710Z,100943.22
2022-11-05T03:01:28.544Z,100955.44
2022-11-05T03:03:58.504Z,100954.94
2022-11-05T03:06:53.337Z,100953.38
2022-11-05T03:09:23.106Z,100943.28
2022-11-05T03:12:12.749Z,100948.00
2022-11-05T03:14:42.485Z,100948.47
2022-11-05T03:17:12.193Z,100943.97
2022-11-05T03:20:20.165Z,100948.06
2022-11-05T03:23:13.442Z,100943.69
2022-11-05T03:26:09.079Z,100937.25
2022-11-05T03:28:38.928Z,100941.47
2022-11-05T03:31:07.039Z,100949.91
2022-11-05T03:33:34.978Z,100941.94
2022-11-05T03:36:05.159Z,100951.13
2022-11-05T03:38:35.519Z,100951.31
2022-11-05T03:41:06.100Z,100957.94
2022-11-05T03:43:35.586Z,100957.22
2022-11-05T03:46:06.629Z,100963.94
2022-11-05T03:48:34.931Z,100964.22
2022-11-05T03:51:23.278Z,100961.19
2022-11-05T03:53:54.147Z,100976.63
2022-11-05T03:56:26.138Z,100976.50
2022-11-05T03:58:58.716Z,100977.19
2022-11-05T04:01:26.504Z,100976.47
2022-11-05T04:03:53.421Z,100983.47
2022-11-05T04:06:38.718Z,100970.53
2022-11-05T04:09:37.667Z,100976.25
2022-11-05T04:12:30.952Z,100984.59
2022-11-05T04:14:57.611Z,100988.97
2022-11-05T04:17:24.270Z,100992.22
2022-11-05T04:20:09.434Z,101000.03
2022-11-05T04:22:55.222Z,100997.22
2022-11-05T04:25:22.565Z,100996.22
2022-11-05T04:27:49.710Z,100998.00
2022-11-05T04:30:21.671Z,100993.31
2022-11-05T04:33:14.326Z,101000.75
2022-11-05T04:35:48.609Z,101002.81
2022-11-05T04:38:18.031Z,100996.16
2022-11-05T04:40:45.841Z,100995.22
2022-11-05T04:43:15.441Z,100998.34
2022-11-05T04:45:42.703Z,100999.47
2022-11-05T04:48:09.699Z,101003.81
2022-11-05T04:50:36.466Z,100992.63
2022-11-05T04:53:03.249Z,101002.22
2022-11-05T04:55:29.917Z,101001.94
2022-11-05T04:57:59.078Z,101004.31
2022-11-05T05:00:27.991Z,101011.88
2022-11-05T05:02:54.948Z,101016.81
2022-11-05T05:05:23.124Z,101016.88
2022-11-05T05:07:49.997Z,101005.28
2022-11-05T05:10:16.801Z,101012.22
2022-11-05T05:12:43.464Z,101015.19
2022-11-05T05:15:10.391Z,101013.59
2022-11-05T05:17:37.159Z,101024.44
2022-11-05T05:20:24.397Z,101020.94
2022-11-05T05:22:54.783Z,101024.03
2022-11-05T05:25:22.125Z,101025.03
2022-11-05T05:27:48.849Z,101027.41
2022-11-05T05:30:15.562Z,101018.66
2022-11-05T05:32:42.329Z,101023.56
2022-11-05T05:35:09.576Z,101022.66
2022-11-05T05:37:36.361Z,101032.75
2022-11-05T05:40:03.473Z,101025.50
2022-11-05T05:42:30.393Z,101025.63
2022-11-05T05:44:57.210Z,101037.28
2022-11-05T05:47:24.050Z,101033.06
2022-11-05T05:49:50.843Z,101030.38
2022-11-05T05:52:17.606Z,101034.16
2022-11-05T05:54:44.430Z,101034.09
2022-11-05T05:57:11.229Z,101047.28
2022-11-05T05:59:38.013Z,101047.53
2022-11-05T06:02:04.820Z,101045.09
2022-11-05T06:04:31.689Z,101052.75
2022-11-05T06:06:58.448Z,101055.59
2022-11-05T06:09:25.258Z,101051.66
2022-11-05T06:11:52.105Z,101059.84
2022-11-05T06:14:18.944Z,101057.34
2022-11-05T06:16:45.793Z,101064.31
2022-11-05T06:19:12.601Z,101058.50
2022-11-05T06:21:39.448Z,101062.47
2022-11-05T06:24:06.717Z,101056.91
2022-11-05T06:26:34.195Z,101067.72
2022-11-05T06:29:01.146Z,101074.72
2022-11-05T06:31:28.102Z,101075.38
2022-11-05T06:33:55.004Z,101080.22
2022-11-05T06:36:21.869Z,101087.66
2022-11-05T06:38:48.931Z,101092.50
2022-11-05T06:41:16.002Z,101092.34
2022-11-05T06:43:43.524Z,101085.59
2022-11-05T06:46:11.220Z,101095.72
2022-11-05T06:48:38.928Z,101107.19
2022-11-05T06:51:06.926Z,101110.19
2022-11-05T06:53:34.456Z,101107.91
2022-11-05T06:56:05.293Z,101112.50
2022-11-05T06:58:32.342Z,101118.34
2022-11-05T07:01:04.015Z,101124.31
2022-11-05T07:03:31.123Z,101124.75
2022-11-05T07:06:00.178Z,101121.03
2022-11-05T07:08:32.399Z,101120.09
2022-11-05T07:10:59.712Z,101124.75
2022-11-05T07:13:27.859Z,101121.13
2022-11-05T07:15:55.452Z,101121.50
2022-11-05T07:18:22.778Z,101124.03
2022-11-05T07:20:49.584Z,101129.19
2022-11-05T07:23:16.585Z,101128.69
2022-11-05T07:25:43.403Z,101136.78
2022-11-05T07:28:22.662Z,101132.34
2022-11-05T07:30:49.425Z,101131.03
2022-11-05T07:33:16.280Z,101137.25
2022-11-05T07:35:42.993Z,101140.13
2022-11-05T07:38:09.804Z,101146.53
2022-11-05T07:40:36.618Z,101149.81
2022-11-05T07:43:03.337Z,101150.03
2022-11-05T07:45:30.993Z,101150.31
2022-11-05T07:48:00.669Z,101151.47
2022-11-05T07:50:31.763Z,101154.69
2022-11-05T07:53:03.131Z,101161.03
2022-11-05T07:55:30.321Z,101164.97
2022-11-05T07:57:57.206Z,101167.28
2022-11-05T08:00:25.620Z,101161.25
2022-11-05T08:03:07.711Z,101156.78
2022-11-05T08:05:36.964Z,101160.47
2022-11-05T08:08:04.378Z,101156.72
2022-11-05T08:10:31.140Z,101159.34
2022-11-05T08:12:57.839Z,101158.44
2022-11-05T08:15:24.616Z,101151.38
2022-11-05T08:18:00.365Z,101146.03
2022-11-05T08:20:27.953Z,101149.84
2022-11-05T08:22:54.901Z,101151.53
2022-11-05T08:25:21.705Z,101148.88
2022-11-05T08:27:56.075Z,101152.53
2022-11-05T08:30:23.157Z,101148.56
2022-11-05T08:32:49.847Z,101147.56
2022-11-05T08:35:16.729Z,101152.34
2022-11-05T08:37:43.416Z,101157.78
2022-11-05T08:40:10.595Z,101154.19
2022-11-05T08:42:37.297Z,101161.13
2022-11-05T08:45:04.474Z,101164.00
2022-11-05T08:47:31.239Z,101161.31
2022-11-05T08:49:57.979Z,101162.09
2022-11-05T08:52:24.908Z,101162.03
2022-11-05T08:54:51.606Z,101162.91
2022-11-05T08:57:18.391Z,101164.22
2022-11-05T08:59:45.252Z,101165.25
2022-11-05T09:02:13.071Z,101178.63
2022-11-05T09:05:00.229Z,101170.94
2022-11-05T09:07:29.123Z,101177.63
2022-11-05T09:09:58.788Z,101173.69
2022-11-05T09:12:29.970Z,101169.28
2022-11-05T09:14:56.898Z,101178.75
2022-11-05T09:17:23.813Z,101179.41
2022-11-05T09:19:50.817Z,101186.75
2022-11-05T09:22:20.858Z,101183.69
2022-11-05T09:24:47.941Z,101185.97
2022-11-05T09:27:14.797Z,101175.56
2022-11-05T09:29:42.402Z,101180.97
2022-11-05T09:32:09.660Z,101195.97
2022-11-05T09:34:36.615Z,101181.31
2022-11-05T09:37:06.247Z,101182.38
2022-11-05T09:39:35.651Z,101181.84
2022-11-05T09:42:20.066Z,101186.63
2022-11-05T09:44:51.214Z,101180.47
2022-11-05T09:47:36.386Z,101181.44
2022-11-05T09:50:08.617Z,101180.81
2022-11-05T09:52:38.245Z,101189.75
2022-11-05T09:55:17.690Z,101183.06
2022-11-05T09:57:50.285Z,101185.41
2022-11-05T10:03:48.083Z,101185.41
2022-11-05T10:06:33.046Z,101182.78
2022-11-05T10:09:21.513Z,101186.50
2022-11-05T10:13:10.165Z,101191.19
2022-11-05T10:23:23.852Z,101195.41
2022-11-05T10:26:17.822Z,101197.91
2022-11-05T10:28:52.584Z,101185.78
2022-11-05T10:31:22.844Z,101188.47
2022-11-05T10:34:32.999Z,101186.66
2022-11-05T10:37:41.179Z,101188.59
2022-11-05T10:41:42.990Z,101189.47
2022-11-05T10:44:42.150Z,101195.66
2022-11-05T11:01:33.861Z,101194.59
2022-11-05T11:05:06.715Z,101198.22
2022-11-05T11:08:11.583Z,101198.22
2022-11-05T11:11:30.110Z,101200.28
2022-11-05T11:13:57.020Z,101194.41
2022-11-05T11:16:33.424Z,101194.69
2022-11-05T11:24:40.045Z,101195.06
2022-11-05T11:27:24.540Z,101196.91
2022-11-05T11:45:46.989Z,101200.78
2022-11-05T11:48:33.317Z,101195.78
2022-11-05T11:51:53.390Z,101199.38
2022-11-05T11:54:34.937Z,101194.06
2022-11-05T12:06:34.798Z,101199.84
2022-11-05T12:10:25.784Z,101190.13
2022-11-05T12:13:50.738Z,101190.25
2022-11-05T12:18:20.967Z,101187.72
2022-11-05T12:21:52.967Z,101191.72
2022-11-05T12:25:49.294Z,101193.28
2022-11-05T12:28:36.436Z,101190.88
2022-11-05T12:31:49.188Z,101191.38
2022-11-05T12:55:48.298Z,101160.84
2022-11-05T13:07:14.307Z,101159.34
2022-11-05T13:10:11.150Z,101167.16
2022-11-05T13:45:24.799Z,101134.66
2022-11-05T13:48:10.705Z,101120.16
2022-11-05T13:51:15.027Z,101123.63
2022-11-05T13:54:05.053Z,101128.91
2022-11-05T13:57:09.119Z,101119.78
2022-11-05T13:59:35.843Z,101119.97
2022-11-05T14:02:16.379Z,101124.34
2022-11-05T14:05:01.401Z,101119.44
2022-11-05T14:07:46.605Z,101117.78
2022-11-05T14:10:20.672Z,101111.56
2022-11-05T14:12:50.769Z,101123.00
2022-11-05T14:15:27.143Z,101121.75
2022-11-05T16:08:32.016Z,101103.72
2022-11-05T16:11:11.588Z,101096.28
2022-11-05T16:13:41.100Z,101090.84
2022-11-05T16:17:31.559Z,101099.81
2022-11-05T16:19:58.700Z,101100.03
2022-11-05T16:22:25.960Z,101099.25
2022-11-05T16:24:53.018Z,101100.94
2022-11-05T16:27:21.594Z,101101.00
2022-11-05T16:29:56.456Z,101102.84
2022-11-05T16:32:30.619Z,101099.28
2022-11-05T16:35:04.055Z,101106.28
2022-11-05T16:37:41.679Z,101108.28
2022-11-05T16:40:21.786Z,101104.59
2022-11-05T16:43:02.754Z,101108.19
2022-11-05T16:45:37.177Z,101111.09
2022-11-05T16:48:32.935Z,101112.84
2022-11-05T16:51:05.913Z,101110.75
2022-11-05T16:53:42.535Z,101113.97
2022-11-05T16:56:33.088Z,101113.16
2022-11-05T16:59:19.367Z,101106.88
2022-11-05T17:01:55.648Z,101108.66
2022-11-05T17:05:01.446Z,101102.41
2022-11-05T19:15:35.324Z,101112.53
2022-11-05T19:18:05.955Z,101117.88
2022-11-05T19:45:30.121Z,101097.28
2022-11-05T19:47:54.124Z,101094.72
2022-11-05T19:50:20.793Z,101095.69
2022-11-05T19:52:50.143Z,101095.72
2022-11-05T19:55:17.085Z,101100.03
2022-11-05T19:57:45.232Z,101099.34
2022-11-05T20:00:26.524Z,101103.81
2022-11-05T20:02:59.340Z,101106.91
2022-11-05T20:05:26.686Z,101118.50
2022-11-05T20:07:59.285Z,101113.38
2022-11-05T20:10:28.852Z,101120.50
2022-11-05T20:12:59.097Z,101122.16
2022-11-05T20:15:26.095Z,101123.69
2022-11-05T20:17:59.072Z,101118.09
2022-11-05T20:20:26.249Z,101124.78
2022-11-05T20:22:55.735Z,101113.63
2022-11-05T20:25:24.186Z,101114.25
2022-11-05T20:27:53.935Z,101101.88
2022-11-05T20:30:21.062Z,101100.75
2022-11-05T20:32:47.956Z,101104.09
2022-11-05T20:35:14.732Z,101099.19
2022-11-05T20:37:44.030Z,101106.75
2022-11-05T20:40:15.124Z,101100.88
2022-11-05T20:42:42.694Z,101108.91
2022-11-05T20:45:11.547Z,101108.00
2022-11-05T20:47:48.477Z,101108.03
2022-11-05T20:50:15.369Z,101110.06
2022-11-05T20:52:42.646Z,101117.00
2022-11-05T20:55:10.006Z,101129.63
2022-11-05T20:57:38.806Z,101131.25
2022-11-05T21:00:07.308Z,101131.97
2022-11-05T21:02:36.769Z,101141.25
2022-11-05T21:05:11.759Z,101130.78
2022-11-05T21:07:49.095Z,101135.13
2022-11-05T21:10:16.071Z,101116.69
2022-11-05T21:12:42.953Z,101133.16
2022-11-05T21:19:12.815Z,101124.16
2022-11-05T21:21:59.106Z,101103.94
2022-11-05T21:24:35.470Z,101111.69
2022-11-05T21:27:06.639Z,101097.81
2022-11-05T21:29:45.075Z,101087.09
2022-11-05T21:32:29.919Z,101078.13
2022-11-05T21:35:04.326Z,101079.81
2022-11-05T21:37:34.126Z,101089.47
2022-11-05T21:40:05.437Z,101084.66
2022-11-05T21:46:13.567Z,101107.75
2022-11-05T21:48:40.490Z,101106.28
2022-11-05T21:51:25.827Z,101100.88
2022-11-05T21:54:11.272Z,101100.19
2022-11-05T21:57:01.110Z,101101.91
2022-11-05T21:59:48.840Z,101093.34
2022-11-05T22:02:24.532Z,101100.47
2022-11-05T22:05:18.269Z,101095.13
2022-11-05T22:11:34.040Z,101082.78
2022-11-05T22:21:18.608Z,101069.41
2022-11-05T22:27:34.190Z,101054.94
2022-11-05T22:30:31.336Z,101058.13
2022-11-05T22:33:01.913Z,101052.63
2022-11-05T22:35:34.660Z,101046.31
2022-11-05T22:38:04.562Z,101034.13
2022-11-05T22:40:33.665Z,101025.75
2022-11-05T22:43:00.634Z,101030.88
2022-11-05T22:45:27.440Z,101032.19
2022-11-05T22:47:54.072Z,101033.03
2022-11-05T22:50:20.954Z,101025.03
2022-11-05T22:52:47.684Z,101019.97
2022-11-05T22:55:14.443Z,101029.06
2022-11-05T22:57:41.492Z,101028.50
2022-11-05T23:00:15.676Z,101036.75
2022-11-05T23:02:42.719Z,101038.38
2022-11-05T23:05:10.101Z,101023.16
2022-11-05T23:07:58.309Z,101020.47
2022-11-05T23:10:43.406Z,101012.47
2022-11-05T23:13:10.162Z,101022.25
2022-11-05T23:15:56.800Z,101022.75
2022-11-05T23:18:41.998Z,101023.44
2022-11-05T23:21:27.050Z,101018.91
2022-11-05T23:24:05.879Z,101026.63
2022-11-05T23:26:52.721Z,101023.13
2022-11-05T23:29:25.191Z,101015.72
2022-11-05T23:32:10.945Z,101014.88
2022-11-05T23:34:38.128Z,101008.63
2022-11-05T23:37:24.120Z,101011.31
2022-11-05T23:39:51.214Z,101014.00
2022-11-05T23:42:36.880Z,101016.09
2022-11-05T23:45:23.755Z,101017.72
2022-11-05T23:48:09.134Z,101018.69
2022-11-05T23:50:39.734Z,100998.09
2022-11-05T23:53:09.600Z,101009.88
2022-11-05T23:55:36.278Z,101006.22
2022-11-05T23:58:03.185Z,101008.28
